Fishers Island, NY (06390)

1:43 AM EDT on September 16, 2014 (GMT -0400)
Noank | Change Station
CLOSE
Current Station
Personal Weather Station
Location: Noank, CT
Elevation: 59 ft
Nearby Weather Stations

Elev 59 ft 41.33 °N, 72.00 °W | Updated 8 seconds ago

Clear
Clear
52.2 °F
Feels Like 52.2 °F
N
0.0
Wind Variable Wind from West
Gusts 1.6 mph

Today
High -- | Low -- °F
--% Chance of Precip.
Yesterday
High -- | Low -- °F
Precip. -- in
6:29 AM 6:55 PM
Waning Gibbous, 49% visible
Pressure 30.09 in
Visibility 10.0 miles
Clouds Clear
Dew Point 52 °F
Humidity 99%
Rainfall 0.00 in
Snow Depth Not available.
UV 0 out of 12
Pollen 3.20 out of 12
Ozone Good
Flu Activity Not available.
METAR KGON 160456Z AUTO 03004KT 10SM CLR 10/09 A3009 RMK AO2 SLP188 T01000089 401890083

More Conditions Fewer Conditions

Pressure 30.09 in
Visibility 10.0 miles
Clouds Clear
Dew Point 52 °F
Humidity 99%
Rainfall 0.00 in
Snow Depth Not available.
UV 0 out of 12
Pollen 3.20 out of 12
Ozone Good
Flu Activity Not available.
METAR KGON 160456Z AUTO 03004KT 10SM CLR 10/09 A3009 RMK AO2 SLP188 T01000089 401890083

More Conditions Fewer Conditions

10-Day Weather Forecast

Almanac

Astronomy

Sep. 16, 2014 Rise Set
Actual Time 6:29 AM EDT 6:55 PM EDT
Civil Twilight 6:01 AM EDT 7:23 PM EDT
Nautical Twilight 5:28 AM EDT 7:55 PM EDT
Astronomical Twilight 4:55 AM EDT 8:29 PM EDT
Moon No Moon Rise 2:19 PM EDT
Length of Visible Light 13h 21m
Length of Day
12h 26m
Tomorrow will be 2m 44s shorter.
Waning Gibbous, 49% of the Moon is Illuminated
Today
Waning Gibbous
Sep 24
New
Oct 1
First Quarter
Oct 8
Full
Oct 15
Last Quarter

Today's Extremes

State Highs State Lows

Community

WunderPhotos

Upload Photos

1,753,702 photos uploaded!

Nearby

Air Quality

  Air Quality AQ Index Pollutant
Yesterday Good
OZONE
Current Good
OZONE
Tuesday Good
OZONE
Tuesday Good
PM2.5

Snow Depth

Station Depth Elevation
No new snow has been reported.

Earthquake Activity

City Distance Mag. Time & Date
No recent earthquake activity has been reported nearby.
Minimum magnitude displayed is 2.5.

Coastal Water Temperatures

Place Temperature
New London, CT 68.0 °F
Newport, RI 68.0 °F
Quonset Point, RI 69.1 °F
Conimicut Light, RI 69.1 °F
Providence, RI 70.0 °F

Nearby Weather Stations